createdAt,value
2017-10-10T00:00:25.829Z,95338.73
2017-10-10T00:02:53.109Z,95337.95
2017-10-10T00:05:20.408Z,95339.66
2017-10-10T00:07:49.434Z,95341.19
2017-10-10T00:10:16.724Z,95345.32
2017-10-10T00:12:43.918Z,95349.87
2017-10-10T00:15:11.140Z,95347.58
2017-10-10T00:17:38.388Z,95337.77
2017-10-10T00:20:05.737Z,95342.86
2017-10-10T00:22:32.890Z,95336.63
2017-10-10T00:25:00.144Z,95338.33
2017-10-10T00:27:27.371Z,95338.72
2017-10-10T00:29:54.708Z,95336.45
2017-10-10T00:32:21.904Z,95334.17
2017-10-10T00:34:49.098Z,95334.34
2017-10-10T00:37:16.383Z,95340.56
2017-10-10T00:39:43.806Z,95342.47
2017-10-10T00:42:11.041Z,95340.94
2017-10-10T00:44:38.238Z,95339.43
2017-10-10T00:47:05.434Z,95341.52
2017-10-10T00:49:32.656Z,95344.31
2017-10-10T00:52:00.111Z,95340.56
2017-10-10T00:54:27.397Z,95337.36
2017-10-10T00:56:54.845Z,95334.50
2017-10-10T00:59:22.126Z,95335.83
2017-10-10T01:01:49.378Z,95335.83
2017-10-10T01:04:16.639Z,95336.78
2017-10-10T01:06:43.943Z,95336.95
2017-10-10T01:09:11.169Z,95337.88
2017-10-10T01:11:38.390Z,95339.73
2017-10-10T01:14:05.766Z,95342.17
2017-10-10T01:16:33.029Z,95334.95
2017-10-10T01:19:00.282Z,95338.32
2017-10-10T01:21:27.546Z,95336.03
2017-10-10T01:23:54.994Z,95328.09
2017-10-10T01:26:22.196Z,95331.47
2017-10-10T01:28:49.437Z,95327.48
2017-10-10T01:31:16.660Z,95331.42
2017-10-10T01:33:44.186Z,95326.52
2017-10-10T01:36:11.706Z,95323.30
2017-10-10T01:38:38.945Z,95329.15
2017-10-10T01:41:06.221Z,95326.88
2017-10-10T01:43:33.459Z,95325.55
2017-10-10T01:46:01.162Z,95324.97
2017-10-10T01:48:28.342Z,95331.00
2017-10-10T01:50:55.602Z,95329.85
2017-10-10T01:53:22.753Z,95325.70
2017-10-10T01:55:49.982Z,95327.01
2017-10-10T01:58:17.263Z,95332.10
2017-10-10T02:00:44.602Z,95332.45
2017-10-10T02:03:11.913Z,95341.34
2017-10-10T02:05:39.190Z,95334.36
2017-10-10T02:08:06.520Z,95341.69
2017-10-10T02:10:33.808Z,95340.95
2017-10-10T02:13:01.082Z,95344.72
2017-10-10T02:15:28.323Z,95341.34
2017-10-10T02:17:55.565Z,95343.01
2017-10-10T02:20:22.757Z,95347.73
2017-10-10T02:22:49.987Z,95346.80
2017-10-10T02:25:17.628Z,95347.57
2017-10-10T02:27:44.818Z,95354.72
2017-10-10T02:30:12.150Z,95356.23
2017-10-10T02:32:39.510Z,95358.31
2017-10-10T02:35:06.814Z,95356.24
2017-10-10T02:37:34.132Z,95355.12
2017-10-10T02:40:01.338Z,95358.87
2017-10-10T02:42:28.497Z,95359.61
2017-10-10T02:44:55.788Z,95350.21
2017-10-10T02:47:23.034Z,95353.20
2017-10-10T02:49:50.338Z,95351.88
2017-10-10T02:52:17.515Z,95351.53
2017-10-10T02:54:44.835Z,95346.25
2017-10-10T02:57:11.998Z,95347.55
2017-10-10T02:59:39.164Z,95349.81
2017-10-10T03:02:06.401Z,95349.99
2017-10-10T03:04:33.644Z,95353.58
2017-10-10T03:07:00.843Z,95348.66
2017-10-10T03:09:28.059Z,95350.17
2017-10-10T03:11:55.304Z,95344.16
2017-10-10T03:14:22.479Z,95343.03
2017-10-10T03:16:49.709Z,95340.60
2017-10-10T03:19:17.446Z,95342.28
2017-10-10T03:21:44.711Z,95338.53
2017-10-10T03:24:11.989Z,95334.77
2017-10-10T03:26:39.204Z,95337.23
2017-10-10T03:29:06.423Z,95333.27
2017-10-10T03:31:33.716Z,95338.92
2017-10-10T03:34:01.135Z,95335.73
2017-10-10T03:36:28.339Z,95333.49
2017-10-10T03:38:55.593Z,95335.38
2017-10-10T03:41:23.004Z,95337.64
2017-10-10T03:43:50.199Z,95336.13
2017-10-10T03:46:17.664Z,95332.16
2017-10-10T03:48:44.883Z,95336.69
2017-10-10T03:51:12.053Z,95339.91
2017-10-10T03:53:39.309Z,95340.28
2017-10-10T03:56:06.542Z,95343.69
2017-10-10T03:58:33.784Z,95348.44
2017-10-10T04:01:01.203Z,95351.29
2017-10-10T04:03:28.369Z,95357.34
2017-10-10T04:05:55.594Z,95356.84
2017-10-10T04:08:22.831Z,95363.10
2017-10-10T04:10:50.038Z,95355.97
2017-10-10T04:13:17.306Z,95359.59
2017-10-10T04:15:44.518Z,95363.39
2017-10-10T04:18:11.686Z,95356.78
2017-10-10T04:20:38.942Z,95357.00
2017-10-10T04:23:06.122Z,95359.84
2017-10-10T04:25:33.421Z,95359.50
2017-10-10T04:28:00.780Z,95361.78
2017-10-10T04:30:28.053Z,95365.73
2017-10-10T04:32:55.363Z,95362.19
2017-10-10T04:35:22.842Z,95372.39
2017-10-10T04:37:50.080Z,95366.37
2017-10-10T04:40:17.267Z,95366.75
2017-10-10T04:42:44.556Z,95369.59
2017-10-10T04:45:11.890Z,95368.66
2017-10-10T04:47:39.193Z,95368.28
2017-10-10T04:50:06.399Z,95372.63
2017-10-10T04:52:33.788Z,95376.06
2017-10-10T04:55:01.534Z,95376.64
2017-10-10T04:57:28.803Z,95376.25
2017-10-10T04:59:56.694Z,95374.39
2017-10-10T05:02:23.941Z,95378.56
2017-10-10T05:04:51.190Z,95374.61
2017-10-10T05:07:18.443Z,95381.25
2017-10-10T05:09:45.972Z,95389.00
2017-10-10T05:12:13.244Z,95378.62
2017-10-10T05:14:40.531Z,95382.41
2017-10-10T05:17:07.727Z,95385.25
2017-10-10T05:19:35.002Z,95391.48
2017-10-10T05:22:02.259Z,95392.63
2017-10-10T05:24:29.770Z,95393.41
2017-10-10T05:26:57.008Z,95393.95
2017-10-10T05:29:24.487Z,95397.94
2017-10-10T05:31:51.704Z,95396.23
2017-10-10T05:34:19.020Z,95400.80
2017-10-10T05:36:46.208Z,95407.61
2017-10-10T05:39:13.592Z,95412.13
2017-10-10T05:41:42.328Z,95414.41
2017-10-10T05:44:09.571Z,95420.49
2017-10-10T05:46:36.895Z,95426.16
2017-10-10T05:49:04.132Z,95430.70
2017-10-10T05:51:32.202Z,95430.33
2017-10-10T05:53:59.608Z,95432.23
2017-10-10T05:56:26.907Z,95433.92
2017-10-10T05:58:54.382Z,95435.62
2017-10-10T06:01:23.933Z,95429.00
2017-10-10T06:06:24.271Z,95434.84
2017-10-10T06:16:31.592Z,95438.05
2017-10-10T06:24:05.427Z,95430.08
2017-10-10T06:41:46.122Z,95435.33
2017-10-10T06:51:48.152Z,95440.18
2017-10-10T06:56:47.404Z,95436.75
2017-10-10T07:04:31.776Z,95442.02
2017-10-10T07:07:00.185Z,95453.58
2017-10-10T07:09:29.733Z,95455.25
2017-10-10T07:32:24.473Z,95462.55
2017-10-10T07:39:56.118Z,95470.28
2017-10-10T07:42:23.392Z,95459.83
2017-10-10T07:44:54.619Z,95461.33
2017-10-10T07:55:09.467Z,95458.02
2017-10-10T07:57:36.744Z,95456.84
2017-10-10T08:00:05.913Z,95459.51
2017-10-10T08:02:36.105Z,95460.88
2017-10-10T08:05:04.742Z,95452.30
2017-10-10T08:07:32.358Z,95453.02
2017-10-10T08:09:59.993Z,95446.78
2017-10-10T08:12:29.813Z,95450.58
2017-10-10T08:14:58.062Z,95441.28
2017-10-10T08:17:25.922Z,95439.91
2017-10-10T08:19:53.289Z,95443.72
2017-10-10T08:22:20.627Z,95446.88
2017-10-10T08:24:49.343Z,95442.89
2017-10-10T08:27:16.637Z,95443.09
2017-10-10T08:29:44.022Z,95438.72
2017-10-10T08:34:44.424Z,95432.47
2017-10-10T08:37:12.189Z,95437.58
2017-10-10T08:47:16.932Z,95445.14
2017-10-10T08:49:45.603Z,95448.20
2017-10-10T08:52:12.865Z,95451.06
2017-10-10T08:54:40.094Z,95447.42
2017-10-10T08:57:07.638Z,95450.84
2017-10-10T08:59:35.439Z,95447.62
2017-10-10T09:02:03.008Z,95444.76
2017-10-10T09:04:30.210Z,95442.48
2017-10-10T09:06:57.535Z,95445.52
2017-10-10T09:09:28.355Z,95438.48
2017-10-10T09:11:56.992Z,95440.58
2017-10-10T09:14:24.364Z,95439.65
2017-10-10T09:19:24.838Z,95438.67
2017-10-10T09:21:52.503Z,95438.88
2017-10-10T09:24:23.597Z,95436.77
2017-10-10T09:26:50.832Z,95430.11
2017-10-10T09:29:19.676Z,95436.16
2017-10-10T09:31:47.367Z,95439.20
2017-10-10T09:44:36.419Z,95428.89
2017-10-10T09:47:04.653Z,95426.63
2017-10-10T09:49:31.936Z,95417.69
2017-10-10T09:52:02.404Z,95418.25
2017-10-10T09:57:04.946Z,95418.41
2017-10-10T09:59:34.725Z,95413.67
2017-10-10T10:02:03.107Z,95417.23
2017-10-10T10:04:32.447Z,95412.50
2017-10-10T10:09:34.819Z,95416.27
2017-10-10T10:12:05.750Z,95413.36
2017-10-10T10:22:20.576Z,95402.15
2017-10-10T10:35:08.091Z,95386.33
2017-10-10T11:16:01.824Z,95323.63
2017-10-10T11:21:03.402Z,95314.84
2017-10-10T11:46:43.670Z,95292.94
2017-10-10T11:49:13.648Z,95284.55
2017-10-10T11:59:29.193Z,95281.30
2017-10-10T12:07:06.993Z,95273.84
2017-10-10T12:12:09.198Z,95268.42
2017-10-10T12:32:30.992Z,95263.08
2017-10-10T13:00:34.047Z,95247.98
2017-10-10T13:05:34.123Z,95241.61
2017-10-10T13:20:44.454Z,95236.27
2017-10-10T13:23:11.955Z,95238.77
2017-10-10T13:46:11.195Z,95240.73
2017-10-10T13:51:42.898Z,95237.72
2017-10-10T13:54:14.358Z,95234.27
2017-10-10T13:56:41.800Z,95233.72
2017-10-10T13:59:11.436Z,95235.41
2017-10-10T14:12:00.065Z,95234.02
2017-10-10T14:27:07.596Z,95231.22
2017-10-10T14:32:09.378Z,95230.52
2017-10-10T14:34:36.617Z,95235.48
2017-10-10T14:37:04.903Z,95235.66
2017-10-10T14:44:40.221Z,95240.62
2017-10-10T14:47:10.029Z,95236.98
2017-10-10T14:49:37.515Z,95242.72
2017-10-10T14:52:04.751Z,95247.85
2017-10-10T14:54:31.942Z,95248.25
2017-10-10T14:56:59.138Z,95252.47
2017-10-10T14:59:26.451Z,95249.05
2017-10-10T15:01:53.628Z,95251.55
2017-10-10T15:04:20.882Z,95252.87
2017-10-10T15:06:48.088Z,95253.06
2017-10-10T15:09:16.379Z,95254.23
2017-10-10T15:11:43.879Z,95256.16
2017-10-10T15:14:13.291Z,95259.02
2017-10-10T15:16:40.652Z,95268.52
2017-10-10T15:19:07.892Z,95268.52
2017-10-10T15:21:35.123Z,95266.05
2017-10-10T15:24:02.314Z,95262.65
2017-10-10T15:26:29.618Z,95267.98
2017-10-10T15:28:56.847Z,95269.14
2017-10-10T15:31:24.854Z,95275.16
2017-10-10T15:36:24.557Z,95277.53
2017-10-10T15:38:51.825Z,95277.17
2017-10-10T15:46:25.807Z,95282.20
2017-10-10T15:48:53.751Z,95280.74
2017-10-10T15:51:20.956Z,95280.14
2017-10-10T15:53:48.240Z,95281.33
2017-10-10T15:56:15.429Z,95284.42
2017-10-10T15:58:42.716Z,95289.55
2017-10-10T16:01:10.520Z,95293.57
2017-10-10T16:03:37.740Z,95292.88
2017-10-10T16:06:04.999Z,95290.07
2017-10-10T16:08:32.206Z,95296.36
2017-10-10T16:10:59.482Z,95295.62
2017-10-10T16:13:26.729Z,95297.42
2017-10-10T16:15:53.987Z,95302.77
2017-10-10T16:18:21.285Z,95303.39
2017-10-10T16:21:05.641Z,95304.52
2017-10-10T16:23:32.963Z,95301.13
2017-10-10T16:26:00.178Z,95306.27
2017-10-10T16:28:27.459Z,95304.23
2017-10-10T16:30:54.686Z,95305.77
2017-10-10T16:33:21.983Z,95311.36
2017-10-10T16:35:49.188Z,95309.66
2017-10-10T16:38:17.226Z,95309.75
2017-10-10T16:40:44.417Z,95312.59
2017-10-10T16:43:18.381Z,95313.39
2017-10-10T16:46:02.393Z,95314.93
2017-10-10T16:51:22.794Z,95315.56
2017-10-10T16:53:50.810Z,95314.83
2017-10-10T16:56:18.176Z,95317.53
2017-10-10T16:58:45.524Z,95323.05
2017-10-10T17:01:12.699Z,95320.84
2017-10-10T17:03:39.874Z,95322.36
2017-10-10T17:06:07.104Z,95322.56
2017-10-10T17:08:34.301Z,95321.40
2017-10-10T17:11:01.507Z,95327.50
2017-10-10T17:13:28.745Z,95321.25
2017-10-10T17:16:16.795Z,95331.09
2017-10-10T17:18:44.047Z,95324.05
2017-10-10T17:21:11.289Z,95330.50
2017-10-10T17:23:38.458Z,95328.59
2017-10-10T17:26:05.719Z,95339.22
2017-10-10T17:28:33.111Z,95337.52
2017-10-10T17:31:00.267Z,95343.95
2017-10-10T17:33:48.576Z,95339.77
2017-10-10T17:36:15.843Z,95343.95
2017-10-10T17:38:44.568Z,95339.95
2017-10-10T17:41:11.800Z,95350.24
2017-10-10T17:43:46.588Z,95349.09
2017-10-10T17:46:13.806Z,95350.25
2017-10-10T17:48:54.039Z,95350.44
2017-10-10T17:51:21.294Z,95347.23
2017-10-10T17:53:48.530Z,95345.73
2017-10-10T17:56:15.726Z,95349.34
2017-10-10T17:58:50.453Z,95351.83
2017-10-10T18:01:17.707Z,95347.85
2017-10-10T18:06:22.611Z,95350.91
2017-10-10T18:08:50.040Z,95349.41
2017-10-10T18:11:17.254Z,95345.22
2017-10-10T18:13:44.494Z,95347.34
2017-10-10T18:16:24.772Z,95349.45
2017-10-10T18:18:52.021Z,95352.11
2017-10-10T18:21:19.193Z,95352.34
2017-10-10T18:23:46.377Z,95359.62
2017-10-10T18:26:13.612Z,95357.59
2017-10-10T18:28:41.188Z,95362.02
2017-10-10T18:31:13.387Z,95362.28
2017-10-10T18:33:40.606Z,95365.18
2017-10-10T18:36:07.810Z,95366.75
2017-10-10T18:38:34.985Z,95372.09
2017-10-10T18:41:02.159Z,95364.75
2017-10-10T18:43:29.409Z,95375.04
2017-10-10T18:45:56.586Z,95378.11
2017-10-10T18:48:23.758Z,95382.91
2017-10-10T18:50:51.001Z,95386.15
2017-10-10T18:53:18.201Z,95383.37
2017-10-10T18:55:45.414Z,95391.73
2017-10-10T18:58:12.627Z,95397.27
2017-10-10T19:00:39.845Z,95401.64
2017-10-10T19:03:07.082Z,95403.19
2017-10-10T19:05:47.351Z,95406.63
2017-10-10T19:08:14.603Z,95404.51
2017-10-10T19:10:41.845Z,95405.67
2017-10-10T19:13:09.257Z,95409.86
2017-10-10T19:15:36.456Z,95408.19
2017-10-10T19:18:03.651Z,95415.02
2017-10-10T19:20:31.530Z,95413.52
2017-10-10T19:23:06.185Z,95417.92
2017-10-10T19:25:33.386Z,95408.81
2017-10-10T19:28:07.590Z,95411.86
2017-10-10T19:30:34.814Z,95408.30
2017-10-10T19:33:01.981Z,95406.20
2017-10-10T19:35:50.770Z,95412.48
2017-10-10T19:38:31.695Z,95408.35
2017-10-10T19:40:58.886Z,95409.45
2017-10-10T19:43:26.083Z,95407.41
2017-10-10T19:45:53.352Z,95408.55
2017-10-10T19:48:20.590Z,95411.39
2017-10-10T19:50:47.783Z,95408.94
2017-10-10T19:53:14.993Z,95410.09
2017-10-10T19:55:42.148Z,95412.19
2017-10-10T19:58:09.470Z,95417.32
2017-10-10T20:00:36.656Z,95415.05
2017-10-10T20:03:03.954Z,95416.77
2017-10-10T20:05:31.138Z,95415.05
2017-10-10T20:07:58.358Z,95414.88
2017-10-10T20:10:25.527Z,95420.95
2017-10-10T20:12:52.780Z,95422.86
2017-10-10T20:15:20.014Z,95425.69
2017-10-10T20:17:47.213Z,95425.34
2017-10-10T20:20:14.401Z,95433.47
2017-10-10T20:22:44.253Z,95431.59
2017-10-10T20:25:11.480Z,95430.23
2017-10-10T20:27:38.676Z,95424.92
2017-10-10T20:30:05.847Z,95428.34
2017-10-10T20:32:33.055Z,95432.14
2017-10-10T20:35:00.306Z,95429.11
2017-10-10T20:37:27.498Z,95427.60
2017-10-10T20:39:54.763Z,95431.40
2017-10-10T20:42:21.937Z,95437.64
2017-10-10T20:44:49.200Z,95438.58
2017-10-10T20:47:16.575Z,95434.43
2017-10-10T20:49:43.799Z,95432.16
2017-10-10T20:52:11.050Z,95438.05
2017-10-10T20:54:38.334Z,95437.48
2017-10-10T20:57:05.601Z,95433.69
2017-10-10T20:59:33.532Z,95439.19
2017-10-10T21:02:00.735Z,95437.86
2017-10-10T21:04:27.954Z,95437.30
2017-10-10T21:06:56.206Z,95438.24
2017-10-10T21:09:23.458Z,95439.95
2017-10-10T21:11:50.635Z,95436.73
2017-10-10T21:14:18.272Z,95440.15
2017-10-10T21:16:45.494Z,95438.64
2017-10-10T21:19:13.841Z,95440.73
2017-10-10T21:21:41.121Z,95444.31
2017-10-10T21:24:09.769Z,95443.75
2017-10-10T21:26:37.042Z,95446.96
2017-10-10T21:29:04.267Z,95445.45
2017-10-10T21:31:31.418Z,95443.95
2017-10-10T21:33:58.590Z,95448.87
2017-10-10T21:36:25.909Z,95443.18
2017-10-10T21:38:53.254Z,95442.62
2017-10-10T21:41:20.423Z,95451.13
2017-10-10T21:43:47.999Z,95460.22
2017-10-10T21:46:15.172Z,95453.21
2017-10-10T21:48:42.385Z,95458.16
2017-10-10T21:51:09.587Z,95460.03
2017-10-10T21:53:36.810Z,95455.28
2017-10-10T21:56:04.038Z,95457.38
2017-10-10T21:58:31.289Z,95462.67
2017-10-10T22:00:58.510Z,95454.75
2017-10-10T22:03:25.697Z,95453.22
2017-10-10T22:05:53.133Z,95458.34
2017-10-10T22:08:20.354Z,95447.73
2017-10-10T22:10:47.582Z,95448.49
2017-10-10T22:13:14.743Z,95446.41
2017-10-10T22:15:41.900Z,95446.39
2017-10-10T22:18:09.129Z,95450.02
2017-10-10T22:20:36.355Z,95446.04
2017-10-10T22:23:03.538Z,95455.30
2017-10-10T22:25:30.699Z,95454.17
2017-10-10T22:27:57.951Z,95459.47
2017-10-10T22:30:35.402Z,95455.12
2017-10-10T22:33:02.672Z,95458.70
2017-10-10T22:35:29.899Z,95459.08
2017-10-10T22:37:57.175Z,95460.98
2017-10-10T22:40:24.431Z,95468.34
2017-10-10T22:42:51.685Z,95467.22
2017-10-10T22:45:18.992Z,95470.59
2017-10-10T22:47:46.203Z,95471.36
2017-10-10T22:50:13.518Z,95474.37
2017-10-10T22:52:40.749Z,95471.91
2017-10-10T22:55:08.001Z,95482.32
2017-10-10T22:57:35.203Z,95482.50
2017-10-10T23:00:10.309Z,95483.25
2017-10-10T23:02:37.466Z,95495.38
2017-10-10T23:05:04.685Z,95500.84
2017-10-10T23:07:31.921Z,95497.25
2017-10-10T23:10:07.449Z,95504.24
2017-10-10T23:12:34.913Z,95500.09
2017-10-10T23:15:02.153Z,95500.26
2017-10-10T23:17:29.306Z,95503.66
2017-10-10T23:19:56.492Z,95503.87
2017-10-10T23:22:23.714Z,95504.24
2017-10-10T23:24:50.968Z,95507.83
2017-10-10T23:27:18.201Z,95508.59
2017-10-10T23:29:45.542Z,95512.35
2017-10-10T23:32:14.229Z,95504.98
2017-10-10T23:34:41.481Z,95513.09
2017-10-10T23:37:08.684Z,95508.56
2017-10-10T23:39:50.569Z,95505.55
2017-10-10T23:42:17.767Z,95511.78
2017-10-10T23:44:45.030Z,95510.44
2017-10-10T23:47:12.500Z,95515.36
2017-10-10T23:52:13.075Z,95508.55
2017-10-10T23:54:50.344Z,95512.34
2017-10-10T23:57:30.349Z,95509.48
2017-10-10T23:59:57.674Z,95513.09
